< Typhoon 195614 1956 Season Typhoon 195616 >
Typhoon 195615 (HARRIET)
General InformationTrack Information on Google Maps || NewsDisaster Info.ResourceGoogle EarthGE AnimationAtom FeedGeoJSON
Detalied Best Track (Time Zone = UTC)
Year Month Day Hour Lat. Long. Pressure (hPa) Wind (kt) Class Image Chart
1956 9 19 00 15.2 142.3 1006 0 2 -- Chart
1956 9 19 06 15.2 141.9 1004 0 2 -- Chart
1956 9 19 12 14.9 141.5 1004 0 2 -- Chart
1956 9 19 18 14.7 141.2 1002 0 2 -- Chart
1956 9 20 00 14.6 140.7 1000 0 2 -- Chart
1956 9 20 06 14.6 140.1 1000 0 2 -- Chart
1956 9 20 12 14.6 139.5 1000 0 2 -- Chart
1956 9 20 18 14.6 138.6 1000 0 2 -- Chart
1956 9 21 00 14.6 137.9 1000 0 2 -- Chart
1956 9 21 06 14.8 137.4 1000 0 2 -- Chart
1956 9 21 12 15.2 136.6 998 0 2 -- Chart
1956 9 21 18 15.5 136.0 996 0 2 -- Chart
1956 9 22 00 15.7 135.2 994 0 2 -- Chart
1956 9 22 06 16.0 134.3 992 0 9 -- Chart
1956 9 22 12 16.1 133.9 992 0 9 -- Chart
1956 9 22 18 16.3 133.3 992 0 9 -- Chart
1956 9 23 00 16.4 132.7 990 0 9 -- Chart
1956 9 23 06 17.4 131.6 985 0 9 -- Chart
1956 9 23 12 18.5 130.5 985 0 9 -- Chart
1956 9 23 18 19.3 129.6 982 0 9 -- Chart
1956 9 24 00 20.1 128.6 980 0 9 -- Chart
1956 9 24 06 20.9 127.8 975 0 9 -- Chart
1956 9 24 12 22.0 127.0 970 0 9 -- Chart
1956 9 24 18 22.9 126.6 970 0 9 -- Chart
1956 9 25 00 24.0 126.3 970 0 9 -- Chart
1956 9 25 06 24.8 126.5 960 0 9 -- Chart
1956 9 25 12 26.0 127.1 953 0 9 -- Chart
1956 9 25 18 26.7 127.7 955 0 9 -- Chart
1956 9 26 00 27.7 128.7 955 0 9 -- Chart
1956 9 26 06 29.0 130.4 955 0 9 -- Chart
1956 9 26 12 30.3 132.2 955 0 9 -- Chart
1956 9 26 18 32.0 134.4 960 0 9 -- Chart
1956 9 27 00 33.7 136.8 968 0 9 -- Chart
1956 9 27 06 35.8 140.3 984 0 9 -- Chart
1956 9 27 12 39.6 146.0 980 0 9 -- Chart
1956 9 27 18 43.5 151.5 980 0 9 -- Chart
1956 9 28 00 49.0 158.0 982 0 9 -- Chart
1956 9 28 06 53.5 166.5 984 0 6 -- Chart
1956 9 28 12 54.0 171.5 980 0 6 -- Chart
1956 9 28 18 58.0 175.5 984 0 6 -- Chart
1956 9 29 00 59.0 183.0 984 0 6 -- Chart
Japan Meteorological Agency Best Track Data | Correction Date : 1991-07-16
< Typhoon 195614 1956 Season Typhoon 195616 >

Help